Terminal Aerodrome Forecast
Issued by NWS Louisville, KY

Home | Current Version | Previous Version | Text Only | Print | Product List | Glossary On
Versions: 1 2 3 4 5 6 7 8 9 10 11 12 13 14 15 16 17 18 19 20 21 22 23 24
000
FTUS43 KLMK 300500
TAFLEX
TAF
KLEX 300533Z 3006/3106 19006KT P6SM SCT100
     FM301400 20014G17KT P6SM VCSH BKN045 PROB30 3018/3022 5SM -TSRA
      BKN030CB
     FM310500 19013KT P6SM -SHRA VCTS BKN040CB=

USA.gov is the U.S. government's official web portal to all federal, state and local government web resources and services.